sensor_id;sensor_type;location;lat;lon;timestamp;P1;durP1;ratioP1;P2;durP2;ratioP2
6249;SDS011;3158;52.148;11.568;2023-04-19T00:02:57;2.33;;;0.88;;
6249;SDS011;3158;52.148;11.568;2023-04-19T00:07:59;1.13;;;1.13;;
6249;SDS011;3158;52.148;11.568;2023-04-19T00:13:00;2.05;;;1.05;;
6249;SDS011;3158;52.148;11.568;2023-04-19T00:18:02;2.13;;;1.40;;
6249;SDS011;3158;52.148;11.568;2023-04-19T00:23:03;1.13;;;1.02;;
6249;SDS011;3158;52.148;11.568;2023-04-19T00:28:03;1.17;;;1.15;;
6249;SDS011;3158;52.148;11.568;2023-04-19T00:33:04;0.98;;;0.82;;
6249;SDS011;3158;52.148;11.568;2023-04-19T00:38:11;1.30;;;1.20;;
6249;SDS011;3158;52.148;11.568;2023-04-19T00:43:16;2.30;;;0.98;;
6249;SDS011;3158;52.148;11.568;2023-04-19T00:48:17;3.88;;;1.67;;
6249;SDS011;3158;52.148;11.568;2023-04-19T00:53:19;3.50;;;1.20;;
6249;SDS011;3158;52.148;11.568;2023-04-19T00:58:20;1.20;;;1.08;;
6249;SDS011;3158;52.148;11.568;2023-04-19T01:03:21;2.22;;;1.02;;
6249;SDS011;3158;52.148;11.568;2023-04-19T01:08:24;4.78;;;1.52;;
6249;SDS011;3158;52.148;11.568;2023-04-19T01:13:27;3.10;;;1.33;;
6249;SDS011;3158;52.148;11.568;2023-04-19T01:18:28;2.63;;;1.40;;
6249;SDS011;3158;52.148;11.568;2023-04-19T01:23:37;1.73;;;0.90;;
6249;SDS011;3158;52.148;11.568;2023-04-19T01:28:38;1.20;;;1.10;;
6249;SDS011;3158;52.148;11.568;2023-04-19T01:33:39;1.25;;;1.25;;
6249;SDS011;3158;52.148;11.568;2023-04-19T01:38:42;1.33;;;1.10;;
6249;SDS011;3158;52.148;11.568;2023-04-19T01:43:46;1.30;;;1.20;;
6249;SDS011;3158;52.148;11.568;2023-04-19T01:48:48;0.85;;;0.85;;
6249;SDS011;3158;52.148;11.568;2023-04-19T01:53:49;2.80;;;1.20;;
6249;SDS011;3158;52.148;11.568;2023-04-19T01:58:53;1.00;;;1.00;;
6249;SDS011;3158;52.148;11.568;2023-04-19T02:03:54;3.90;;;1.33;;
6249;SDS011;3158;52.148;11.568;2023-04-19T02:08:56;3.22;;;1.10;;
6249;SDS011;3158;52.148;11.568;2023-04-19T02:13:57;1.75;;;1.30;;
6249;SDS011;3158;52.148;11.568;2023-04-19T02:18:58;1.05;;;0.73;;
6249;SDS011;3158;52.148;11.568;2023-04-19T02:23:59;0.77;;;0.77;;
6249;SDS011;3158;52.148;11.568;2023-04-19T02:29:00;0.80;;;0.80;;
6249;SDS011;3158;52.148;11.568;2023-04-19T02:34:01;0.80;;;0.80;;
6249;SDS011;3158;52.148;11.568;2023-04-19T02:39:02;0.95;;;0.70;;
6249;SDS011;3158;52.148;11.568;2023-04-19T02:44:04;0.80;;;0.80;;
6249;SDS011;3158;52.148;11.568;2023-04-19T02:49:05;3.70;;;0.90;;
6249;SDS011;3158;52.148;11.568;2023-04-19T02:54:06;0.82;;;0.82;;
6249;SDS011;3158;52.148;11.568;2023-04-19T02:59:07;2.15;;;0.80;;
6249;SDS011;3158;52.148;11.568;2023-04-19T03:04:09;2.08;;;0.93;;
6249;SDS011;3158;52.148;11.568;2023-04-19T03:09:11;1.08;;;0.63;;
6249;SDS011;3158;52.148;11.568;2023-04-19T03:14:12;0.50;;;0.50;;
6249;SDS011;3158;52.148;11.568;2023-04-19T03:19:13;1.38;;;0.80;;
6249;SDS011;3158;52.148;11.568;2023-04-19T03:24:27;0.68;;;0.68;;
6249;SDS011;3158;52.148;11.568;2023-04-19T03:29:30;2.17;;;1.10;;
6249;SDS011;3158;52.148;11.568;2023-04-19T03:34:34;0.70;;;0.70;;
6249;SDS011;3158;52.148;11.568;2023-04-19T03:39:35;0.82;;;0.82;;
6249;SDS011;3158;52.148;11.568;2023-04-19T03:44:40;13.35;;;3.30;;
6249;SDS011;3158;52.148;11.568;2023-04-19T03:49:42;0.93;;;0.70;;
6249;SDS011;3158;52.148;11.568;2023-04-19T03:54:43;0.98;;;0.98;;
6249;SDS011;3158;52.148;11.568;2023-04-19T03:59:58;0.95;;;0.90;;
6249;SDS011;3158;52.148;11.568;2023-04-19T04:04:59;1.33;;;0.93;;
6249;SDS011;3158;52.148;11.568;2023-04-19T04:10:01;0.70;;;0.70;;
6249;SDS011;3158;52.148;11.568;2023-04-19T04:15:06;0.60;;;0.60;;
6249;SDS011;3158;52.148;11.568;2023-04-19T04:20:10;1.25;;;1.15;;
6249;SDS011;3158;52.148;11.568;2023-04-19T04:25:13;1.98;;;1.35;;
6249;SDS011;3158;52.148;11.568;2023-04-19T04:30:15;1.27;;;0.90;;
6249;SDS011;3158;52.148;11.568;2023-04-19T04:35:17;0.85;;;0.80;;
6249;SDS011;3158;52.148;11.568;2023-04-19T04:40:26;3.05;;;0.90;;
6249;SDS011;3158;52.148;11.568;2023-04-19T04:45:27;0.68;;;0.68;;
6249;SDS011;3158;52.148;11.568;2023-04-19T04:50:29;2.83;;;1.00;;
6249;SDS011;3158;52.148;11.568;2023-04-19T04:55:30;3.08;;;0.77;;
6249;SDS011;3158;52.148;11.568;2023-04-19T05:00:32;1.30;;;1.17;;
6249;SDS011;3158;52.148;11.568;2023-04-19T05:05:37;0.93;;;0.85;;
6249;SDS011;3158;52.148;11.568;2023-04-19T05:10:38;3.55;;;1.00;;
6249;SDS011;3158;52.148;11.568;2023-04-19T05:15:39;2.90;;;1.35;;
6249;SDS011;3158;52.148;11.568;2023-04-19T05:20:42;1.73;;;1.60;;
6249;SDS011;3158;52.148;11.568;2023-04-19T05:25:52;0.98;;;0.98;;
6249;SDS011;3158;52.148;11.568;2023-04-19T05:30:55;3.05;;;0.93;;
6249;SDS011;3158;52.148;11.568;2023-04-19T05:36:00;0.90;;;0.90;;
6249;SDS011;3158;52.148;11.568;2023-04-19T05:41:02;0.90;;;0.90;;
6249;SDS011;3158;52.148;11.568;2023-04-19T05:46:03;1.00;;;0.77;;
6249;SDS011;3158;52.148;11.568;2023-04-19T05:51:05;1.25;;;0.80;;
6249;SDS011;3158;52.148;11.568;2023-04-19T05:56:32;5.40;;;1.20;;
6249;SDS011;3158;52.148;11.568;2023-04-19T06:01:33;2.60;;;1.13;;
6249;SDS011;3158;52.148;11.568;2023-04-19T06:06:35;1.67;;;1.00;;
6249;SDS011;3158;52.148;11.568;2023-04-19T06:11:36;2.13;;;1.05;;
6249;SDS011;3158;52.148;11.568;2023-04-19T06:16:38;4.45;;;1.10;;
6249;SDS011;3158;52.148;11.568;2023-04-19T06:21:39;2.28;;;1.00;;
6249;SDS011;3158;52.148;11.568;2023-04-19T06:26:40;0.73;;;0.73;;
6249;SDS011;3158;52.148;11.568;2023-04-19T06:31:42;0.70;;;0.70;;
6249;SDS011;3158;52.148;11.568;2023-04-19T06:36:45;0.80;;;0.80;;
6249;SDS011;3158;52.148;11.568;2023-04-19T06:41:46;0.80;;;0.80;;
6249;SDS011;3158;52.148;11.568;2023-04-19T06:46:49;0.65;;;0.63;;
6249;SDS011;3158;52.148;11.568;2023-04-19T06:51:51;0.68;;;0.68;;
6249;SDS011;3158;52.148;11.568;2023-04-19T06:56:52;1.33;;;0.75;;
6249;SDS011;3158;52.148;11.568;2023-04-19T07:01:53;1.10;;;0.80;;
6249;SDS011;3158;52.148;11.568;2023-04-19T07:06:57;6.10;;;0.90;;
6249;SDS011;3158;52.148;11.568;2023-04-19T07:11:59;1.00;;;0.90;;
6249;SDS011;3158;52.148;11.568;2023-04-19T07:17:02;0.52;;;0.40;;
6249;SDS011;3158;52.148;11.568;2023-04-19T07:22:04;2.85;;;0.73;;
6249;SDS011;3158;52.148;11.568;2023-04-19T07:27:05;0.60;;;0.60;;
6249;SDS011;3158;52.148;11.568;2023-04-19T07:32:06;1.20;;;1.10;;
6249;SDS011;3158;52.148;11.568;2023-04-19T07:37:07;0.60;;;0.60;;
6249;SDS011;3158;52.148;11.568;2023-04-19T07:42:08;1.48;;;0.70;;
6249;SDS011;3158;52.148;11.568;2023-04-19T07:47:09;2.55;;;0.75;;
6249;SDS011;3158;52.148;11.568;2023-04-19T07:52:10;1.27;;;1.17;;
6249;SDS011;3158;52.148;11.568;2023-04-19T07:57:11;3.80;;;1.00;;
6249;SDS011;3158;52.148;11.568;2023-04-19T08:02:12;1.75;;;0.77;;
6249;SDS011;3158;52.148;11.568;2023-04-19T08:07:15;2.15;;;0.90;;
6249;SDS011;3158;52.148;11.568;2023-04-19T08:12:16;0.90;;;0.90;;
6249;SDS011;3158;52.148;11.568;2023-04-19T08:17:18;1.02;;;0.90;;
6249;SDS011;3158;52.148;11.568;2023-04-19T08:22:20;0.70;;;0.70;;
6249;SDS011;3158;52.148;11.568;2023-04-19T08:27:21;1.10;;;1.10;;
6249;SDS011;3158;52.148;11.568;2023-04-19T08:32:22;2.03;;;0.63;;
6249;SDS011;3158;52.148;11.568;2023-04-19T08:37:23;1.08;;;0.70;;
6249;SDS011;3158;52.148;11.568;2023-04-19T08:42:25;2.28;;;0.80;;
6249;SDS011;3158;52.148;11.568;2023-04-19T08:47:26;0.75;;;0.75;;
6249;SDS011;3158;52.148;11.568;2023-04-19T08:52:28;0.90;;;0.90;;
6249;SDS011;3158;52.148;11.568;2023-04-19T08:57:30;0.73;;;0.73;;
6249;SDS011;3158;52.148;11.568;2023-04-19T09:02:44;0.90;;;0.90;;
6249;SDS011;3158;52.148;11.568;2023-04-19T09:07:46;1.02;;;0.80;;
6249;SDS011;3158;52.148;11.568;2023-04-19T09:13:03;0.93;;;0.82;;
6249;SDS011;3158;52.148;11.568;2023-04-19T09:18:05;1.52;;;0.80;;
6249;SDS011;3158;52.148;11.568;2023-04-19T09:23:08;1.40;;;0.70;;
6249;SDS011;3158;52.148;11.568;2023-04-19T09:28:11;1.60;;;0.90;;
6249;SDS011;3158;52.148;11.568;2023-04-19T09:33:13;1.85;;;0.77;;
6249;SDS011;3158;52.148;11.568;2023-04-19T09:38:14;0.98;;;0.85;;
6249;SDS011;3158;52.148;11.568;2023-04-19T09:43:24;0.80;;;0.80;;
6249;SDS011;3158;52.148;11.568;2023-04-19T09:48:25;0.75;;;0.73;;
6249;SDS011;3158;52.148;11.568;2023-04-19T09:53:27;0.70;;;0.70;;
6249;SDS011;3158;52.148;11.568;2023-04-19T09:58:28;2.85;;;1.00;;
6249;SDS011;3158;52.148;11.568;2023-04-19T10:03:29;2.83;;;0.57;;
6249;SDS011;3158;52.148;11.568;2023-04-19T10:08:31;0.68;;;0.68;;
6249;SDS011;3158;52.148;11.568;2023-04-19T10:13:32;0.70;;;0.70;;
6249;SDS011;3158;52.148;11.568;2023-04-19T10:18:33;2.03;;;0.50;;
6249;SDS011;3158;52.148;11.568;2023-04-19T10:23:34;1.88;;;0.60;;
6249;SDS011;3158;52.148;11.568;2023-04-19T10:28:36;0.60;;;0.60;;
6249;SDS011;3158;52.148;11.568;2023-04-19T10:33:37;0.93;;;0.80;;
6249;SDS011;3158;52.148;11.568;2023-04-19T10:38:40;0.65;;;0.65;;
6249;SDS011;3158;52.148;11.568;2023-04-19T10:48:57;0.90;;;0.90;;
6249;SDS011;3158;52.148;11.568;2023-04-19T10:54:02;1.48;;;0.90;;
6249;SDS011;3158;52.148;11.568;2023-04-19T11:09:36;1.45;;;0.85;;
6249;SDS011;3158;52.148;11.568;2023-04-19T11:14:44;0.98;;;0.60;;
6249;SDS011;3158;52.148;11.568;2023-04-19T11:19:53;0.70;;;0.70;;
6249;SDS011;3158;52.148;11.568;2023-04-19T11:24:54;1.13;;;1.10;;
6249;SDS011;3158;52.148;11.568;2023-04-19T11:30:00;1.35;;;1.20;;
6249;SDS011;3158;52.148;11.568;2023-04-19T11:35:03;1.95;;;0.93;;
6249;SDS011;3158;52.148;11.568;2023-04-19T11:40:06;4.95;;;1.02;;
6249;SDS011;3158;52.148;11.568;2023-04-19T11:45:08;1.02;;;0.90;;
6249;SDS011;3158;52.148;11.568;2023-04-19T11:50:29;1.08;;;1.08;;
6249;SDS011;3158;52.148;11.568;2023-04-19T11:55:31;3.20;;;1.02;;
6249;SDS011;3158;52.148;11.568;2023-04-19T12:00:32;0.90;;;0.90;;
6249;SDS011;3158;52.148;11.568;2023-04-19T12:05:33;0.90;;;0.90;;
6249;SDS011;3158;52.148;11.568;2023-04-19T12:10:35;1.60;;;1.30;;
6249;SDS011;3158;52.148;11.568;2023-04-19T12:15:42;0.90;;;0.90;;
6249;SDS011;3158;52.148;11.568;2023-04-19T12:20:47;0.95;;;0.95;;
6249;SDS011;3158;52.148;11.568;2023-04-19T12:25:48;2.10;;;0.98;;
6249;SDS011;3158;52.148;11.568;2023-04-19T12:30:50;1.92;;;1.00;;
6249;SDS011;3158;52.148;11.568;2023-04-19T12:35:52;0.70;;;0.70;;
6249;SDS011;3158;52.148;11.568;2023-04-19T12:40:53;0.90;;;0.90;;
6249;SDS011;3158;52.148;11.568;2023-04-19T12:45:54;1.85;;;1.10;;
6249;SDS011;3158;52.148;11.568;2023-04-19T12:50:55;3.65;;;1.00;;
6249;SDS011;3158;52.148;11.568;2023-04-19T12:55:56;0.90;;;0.90;;
6249;SDS011;3158;52.148;11.568;2023-04-19T13:00:57;2.47;;;1.20;;
6249;SDS011;3158;52.148;11.568;2023-04-19T13:05:59;1.10;;;1.10;;
6249;SDS011;3158;52.148;11.568;2023-04-19T13:11:00;1.10;;;1.00;;
6249;SDS011;3158;52.148;11.568;2023-04-19T13:16:02;1.88;;;0.90;;
6249;SDS011;3158;52.148;11.568;2023-04-19T13:21:03;3.25;;;0.98;;
6249;SDS011;3158;52.148;11.568;2023-04-19T13:26:04;7.22;;;1.20;;
6249;SDS011;3158;52.148;11.568;2023-04-19T13:31:05;3.30;;;1.08;;
6249;SDS011;3158;52.148;11.568;2023-04-19T13:36:06;1.23;;;1.23;;
6249;SDS011;3158;52.148;11.568;2023-04-19T13:41:08;1.40;;;1.30;;
6249;SDS011;3158;52.148;11.568;2023-04-19T13:46:09;1.52;;;1.10;;
6249;SDS011;3158;52.148;11.568;2023-04-19T13:51:10;2.10;;;0.88;;
6249;SDS011;3158;52.148;11.568;2023-04-19T13:56:11;2.13;;;1.00;;
6249;SDS011;3158;52.148;11.568;2023-04-19T14:01:14;1.08;;;0.90;;
6249;SDS011;3158;52.148;11.568;2023-04-19T14:06:15;2.22;;;1.02;;
6249;SDS011;3158;52.148;11.568;2023-04-19T14:11:16;1.15;;;1.08;;
6249;SDS011;3158;52.148;11.568;2023-04-19T14:16:17;1.42;;;1.30;;
6249;SDS011;3158;52.148;11.568;2023-04-19T14:21:18;0.90;;;0.90;;
6249;SDS011;3158;52.148;11.568;2023-04-19T14:26:19;1.85;;;1.30;;
6249;SDS011;3158;52.148;11.568;2023-04-19T14:31:20;1.40;;;1.40;;
6249;SDS011;3158;52.148;11.568;2023-04-19T14:36:21;1.50;;;1.40;;
6249;SDS011;3158;52.148;11.568;2023-04-19T14:41:22;1.13;;;1.10;;
6249;SDS011;3158;52.148;11.568;2023-04-19T14:46:23;1.73;;;1.45;;
6249;SDS011;3158;52.148;11.568;2023-04-19T14:51:24;3.22;;;1.40;;
6249;SDS011;3158;52.148;11.568;2023-04-19T14:56:26;4.13;;;1.10;;
6249;SDS011;3158;52.148;11.568;2023-04-19T15:01:27;1.35;;;1.27;;
6249;SDS011;3158;52.148;11.568;2023-04-19T15:06:28;2.75;;;1.70;;
6249;SDS011;3158;52.148;11.568;2023-04-19T15:11:30;1.63;;;1.30;;
6249;SDS011;3158;52.148;11.568;2023-04-19T15:16:31;1.55;;;1.45;;
6249;SDS011;3158;52.148;11.568;2023-04-19T15:21:32;8.48;;;1.90;;
6249;SDS011;3158;52.148;11.568;2023-04-19T15:26:34;1.52;;;1.52;;
6249;SDS011;3158;52.148;11.568;2023-04-19T15:31:34;3.85;;;2.15;;
6249;SDS011;3158;52.148;11.568;2023-04-19T15:36:35;3.75;;;1.45;;
6249;SDS011;3158;52.148;11.568;2023-04-19T15:41:36;1.08;;;1.05;;
6249;SDS011;3158;52.148;11.568;2023-04-19T15:46:37;1.73;;;1.63;;
6249;SDS011;3158;52.148;11.568;2023-04-19T15:51:38;2.08;;;1.60;;
6249;SDS011;3158;52.148;11.568;2023-04-19T15:56:39;4.10;;;1.63;;
6249;SDS011;3158;52.148;11.568;2023-04-19T16:01:40;3.78;;;1.60;;
6249;SDS011;3158;52.148;11.568;2023-04-19T16:06:41;3.53;;;1.48;;
6249;SDS011;3158;52.148;11.568;2023-04-19T16:11:42;1.20;;;1.20;;
6249;SDS011;3158;52.148;11.568;2023-04-19T16:16:43;2.90;;;1.35;;
6249;SDS011;3158;52.148;11.568;2023-04-19T16:21:44;1.67;;;1.45;;
6249;SDS011;3158;52.148;11.568;2023-04-19T16:26:45;2.58;;;1.42;;
6249;SDS011;3158;52.148;11.568;2023-04-19T16:31:47;1.00;;;1.00;;
6249;SDS011;3158;52.148;11.568;2023-04-19T16:36:48;4.03;;;1.08;;
6249;SDS011;3158;52.148;11.568;2023-04-19T16:41:49;2.40;;;1.30;;
6249;SDS011;3158;52.148;11.568;2023-04-19T16:46:50;3.22;;;1.38;;
6249;SDS011;3158;52.148;11.568;2023-04-19T16:51:51;2.22;;;2.08;;
6249;SDS011;3158;52.148;11.568;2023-04-19T16:56:52;1.98;;;1.55;;
6249;SDS011;3158;52.148;11.568;2023-04-19T17:01:53;1.45;;;1.35;;
6249;SDS011;3158;52.148;11.568;2023-04-19T17:06:55;2.42;;;2.30;;
6249;SDS011;3158;52.148;11.568;2023-04-19T17:11:56;2.25;;;2.05;;
6249;SDS011;3158;52.148;11.568;2023-04-19T17:16:57;2.33;;;2.17;;
6249;SDS011;3158;52.148;11.568;2023-04-19T17:21:58;5.15;;;2.85;;
6249;SDS011;3158;52.148;11.568;2023-04-19T17:27:04;2.03;;;1.80;;
6249;SDS011;3158;52.148;11.568;2023-04-19T17:32:05;3.17;;;2.05;;
6249;SDS011;3158;52.148;11.568;2023-04-19T17:37:07;1.55;;;1.50;;
6249;SDS011;3158;52.148;11.568;2023-04-19T17:42:08;1.98;;;1.90;;
6249;SDS011;3158;52.148;11.568;2023-04-19T17:47:09;1.92;;;1.83;;
6249;SDS011;3158;52.148;11.568;2023-04-19T17:52:11;2.15;;;1.98;;
6249;SDS011;3158;52.148;11.568;2023-04-19T17:57:12;8.50;;;1.77;;
6249;SDS011;3158;52.148;11.568;2023-04-19T18:02:13;3.15;;;1.80;;
6249;SDS011;3158;52.148;11.568;2023-04-19T18:07:14;3.58;;;2.22;;
6249;SDS011;3158;52.148;11.568;2023-04-19T18:12:15;3.17;;;1.77;;
6249;SDS011;3158;52.148;11.568;2023-04-19T18:17:16;1.90;;;1.80;;
6249;SDS011;3158;52.148;11.568;2023-04-19T18:22:17;1.88;;;1.85;;
6249;SDS011;3158;52.148;11.568;2023-04-19T18:27:18;2.35;;;2.15;;
6249;SDS011;3158;52.148;11.568;2023-04-19T18:32:19;5.45;;;2.30;;
6249;SDS011;3158;52.148;11.568;2023-04-19T18:37:22;2.83;;;2.70;;
6249;SDS011;3158;52.148;11.568;2023-04-19T18:42:23;2.58;;;2.45;;
6249;SDS011;3158;52.148;11.568;2023-04-19T18:47:25;2.47;;;2.38;;
6249;SDS011;3158;52.148;11.568;2023-04-19T18:52:26;2.55;;;2.40;;
6249;SDS011;3158;52.148;11.568;2023-04-19T18:57:27;2.60;;;2.50;;
6249;SDS011;3158;52.148;11.568;2023-04-19T19:02:28;2.45;;;2.25;;
6249;SDS011;3158;52.148;11.568;2023-04-19T19:07:29;4.05;;;2.55;;
6249;SDS011;3158;52.148;11.568;2023-04-19T19:12:30;3.53;;;2.72;;
6249;SDS011;3158;52.148;11.568;2023-04-19T19:17:31;2.28;;;2.10;;
6249;SDS011;3158;52.148;11.568;2023-04-19T19:22:32;2.58;;;2.47;;
6249;SDS011;3158;52.148;11.568;2023-04-19T19:27:34;4.10;;;2.60;;
6249;SDS011;3158;52.148;11.568;2023-04-19T19:32:35;3.15;;;2.38;;
6249;SDS011;3158;52.148;11.568;2023-04-19T19:37:36;2.47;;;2.38;;
6249;SDS011;3158;52.148;11.568;2023-04-19T19:42:38;3.17;;;2.20;;
6249;SDS011;3158;52.148;11.568;2023-04-19T19:47:39;2.20;;;2.10;;
6249;SDS011;3158;52.148;11.568;2023-04-19T19:52:43;2.08;;;1.98;;
6249;SDS011;3158;52.148;11.568;2023-04-19T19:57:44;3.55;;;2.30;;
6249;SDS011;3158;52.148;11.568;2023-04-19T20:02:45;3.10;;;2.55;;
6249;SDS011;3158;52.148;11.568;2023-04-19T20:07:47;4.72;;;2.67;;
6249;SDS011;3158;52.148;11.568;2023-04-19T20:12:48;2.53;;;2.33;;
6249;SDS011;3158;52.148;11.568;2023-04-19T20:17:50;4.00;;;2.20;;
6249;SDS011;3158;52.148;11.568;2023-04-19T20:22:51;1.63;;;1.52;;
6249;SDS011;3158;52.148;11.568;2023-04-19T20:27:52;4.03;;;2.60;;
6249;SDS011;3158;52.148;11.568;2023-04-19T20:32:54;2.40;;;1.85;;
6249;SDS011;3158;52.148;11.568;2023-04-19T20:37:54;5.15;;;2.17;;
6249;SDS011;3158;52.148;11.568;2023-04-19T20:43:01;4.82;;;2.13;;
6249;SDS011;3158;52.148;11.568;2023-04-19T20:48:02;2.88;;;2.28;;
6249;SDS011;3158;52.148;11.568;2023-04-19T20:53:05;3.08;;;2.38;;
6249;SDS011;3158;52.148;11.568;2023-04-19T20:58:06;2.70;;;2.47;;
6249;SDS011;3158;52.148;11.568;2023-04-19T21:03:07;2.45;;;1.80;;
6249;SDS011;3158;52.148;11.568;2023-04-19T21:08:08;3.97;;;1.98;;
6249;SDS011;3158;52.148;11.568;2023-04-19T21:13:09;2.13;;;2.03;;
6249;SDS011;3158;52.148;11.568;2023-04-19T21:18:10;2.65;;;2.28;;
6249;SDS011;3158;52.148;11.568;2023-04-19T21:23:11;2.72;;;1.65;;
6249;SDS011;3158;52.148;11.568;2023-04-19T21:28:12;3.47;;;2.28;;
6249;SDS011;3158;52.148;11.568;2023-04-19T21:33:13;2.80;;;2.58;;
6249;SDS011;3158;52.148;11.568;2023-04-19T21:38:17;5.80;;;2.10;;
6249;SDS011;3158;52.148;11.568;2023-04-19T21:43:18;2.60;;;2.20;;
6249;SDS011;3158;52.148;11.568;2023-04-19T21:48:19;4.88;;;3.17;;
6249;SDS011;3158;52.148;11.568;2023-04-19T21:53:20;9.02;;;2.72;;
6249;SDS011;3158;52.148;11.568;2023-04-19T21:58:21;5.15;;;3.53;;
6249;SDS011;3158;52.148;11.568;2023-04-19T22:03:22;3.47;;;2.55;;
6249;SDS011;3158;52.148;11.568;2023-04-19T22:08:23;4.25;;;2.65;;
6249;SDS011;3158;52.148;11.568;2023-04-19T22:13:24;7.00;;;2.95;;
6249;SDS011;3158;52.148;11.568;2023-04-19T22:18:27;3.45;;;2.80;;
6249;SDS011;3158;52.148;11.568;2023-04-19T22:23:28;3.63;;;2.75;;
6249;SDS011;3158;52.148;11.568;2023-04-19T22:28:29;8.43;;;2.55;;
6249;SDS011;3158;52.148;11.568;2023-04-19T22:33:32;4.70;;;2.53;;
6249;SDS011;3158;52.148;11.568;2023-04-19T22:38:33;2.47;;;2.28;;
6249;SDS011;3158;52.148;11.568;2023-04-19T22:43:34;4.68;;;2.55;;
6249;SDS011;3158;52.148;11.568;2023-04-19T22:48:36;3.38;;;2.80;;
6249;SDS011;3158;52.148;11.568;2023-04-19T22:53:37;2.65;;;2.50;;
6249;SDS011;3158;52.148;11.568;2023-04-19T22:58:38;2.83;;;2.58;;
6249;SDS011;3158;52.148;11.568;2023-04-19T23:03:39;5.18;;;3.22;;
6249;SDS011;3158;52.148;11.568;2023-04-19T23:08:40;3.78;;;2.53;;
6249;SDS011;3158;52.148;11.568;2023-04-19T23:13:41;9.25;;;2.75;;
6249;SDS011;3158;52.148;11.568;2023-04-19T23:18:43;2.72;;;2.58;;
6249;SDS011;3158;52.148;11.568;2023-04-19T23:23:44;4.07;;;2.65;;
6249;SDS011;3158;52.148;11.568;2023-04-19T23:28:46;4.78;;;2.58;;
6249;SDS011;3158;52.148;11.568;2023-04-19T23:33:47;5.60;;;2.72;;
6249;SDS011;3158;52.148;11.568;2023-04-19T23:38:48;3.08;;;2.72;;
6249;SDS011;3158;52.148;11.568;2023-04-19T23:43:49;4.43;;;2.38;;
6249;SDS011;3158;52.148;11.568;2023-04-19T23:48:50;12.55;;;3.53;;
6249;SDS011;3158;52.148;11.568;2023-04-19T23:53:51;6.18;;;3.22;;
6249;SDS011;3158;52.148;11.568;2023-04-19T23:58:52;4.20;;;2.95;;
